sensor_id;sensor_type;location;lat;lon;timestamp;P1;durP1;ratioP1;P2;durP2;ratioP2
7939;SDS011;4015;48.888;9.226;2023-02-26T00:02:05;4.00;;;2.33;;
7939;SDS011;4015;48.888;9.226;2023-02-26T00:04:31;4.23;;;2.33;;
7939;SDS011;4015;48.888;9.226;2023-02-26T00:06:56;4.93;;;2.90;;
7939;SDS011;4015;48.888;9.226;2023-02-26T00:09:21;3.67;;;2.40;;
7939;SDS011;4015;48.888;9.226;2023-02-26T00:11:47;3.40;;;2.57;;
7939;SDS011;4015;48.888;9.226;2023-02-26T00:14:13;5.37;;;2.30;;
7939;SDS011;4015;48.888;9.226;2023-02-26T00:16:39;3.27;;;2.67;;
7939;SDS011;4015;48.888;9.226;2023-02-26T00:19:07;2.57;;;2.30;;
7939;SDS011;4015;48.888;9.226;2023-02-26T00:21:34;4.50;;;2.30;;
7939;SDS011;4015;48.888;9.226;2023-02-26T00:24:00;3.47;;;2.70;;
7939;SDS011;4015;48.888;9.226;2023-02-26T00:26:26;3.10;;;2.47;;
7939;SDS011;4015;48.888;9.226;2023-02-26T00:28:54;3.73;;;2.30;;
7939;SDS011;4015;48.888;9.226;2023-02-26T00:31:20;4.67;;;2.80;;
7939;SDS011;4015;48.888;9.226;2023-02-26T00:33:48;2.77;;;2.37;;
7939;SDS011;4015;48.888;9.226;2023-02-26T00:39:12;2.80;;;2.20;;
7939;SDS011;4015;48.888;9.226;2023-02-26T00:41:56;4.57;;;2.97;;
7939;SDS011;4015;48.888;9.226;2023-02-26T00:44:21;2.83;;;2.60;;
7939;SDS011;4015;48.888;9.226;2023-02-26T00:51:57;4.07;;;2.47;;
7939;SDS011;4015;48.888;9.226;2023-02-26T00:54:26;4.70;;;2.70;;
7939;SDS011;4015;48.888;9.226;2023-02-26T00:56:54;2.63;;;2.43;;
7939;SDS011;4015;48.888;9.226;2023-02-26T00:59:20;4.10;;;2.57;;
7939;SDS011;4015;48.888;9.226;2023-02-26T01:01:46;4.13;;;2.23;;
7939;SDS011;4015;48.888;9.226;2023-02-26T01:04:13;4.17;;;2.70;;
7939;SDS011;4015;48.888;9.226;2023-02-26T01:06:44;3.23;;;2.30;;
7939;SDS011;4015;48.888;9.226;2023-02-26T01:11:45;3.67;;;2.70;;
7939;SDS011;4015;48.888;9.226;2023-02-26T01:14:10;6.10;;;2.67;;
7939;SDS011;4015;48.888;9.226;2023-02-26T01:16:37;5.87;;;3.17;;
7939;SDS011;4015;48.888;9.226;2023-02-26T01:19:19;3.00;;;2.53;;
7939;SDS011;4015;48.888;9.226;2023-02-26T01:22:02;4.47;;;3.10;;
7939;SDS011;4015;48.888;9.226;2023-02-26T01:24:36;7.17;;;2.80;;
7939;SDS011;4015;48.888;9.226;2023-02-26T01:27:02;4.73;;;3.07;;
7939;SDS011;4015;48.888;9.226;2023-02-26T01:29:27;3.07;;;2.63;;
7939;SDS011;4015;48.888;9.226;2023-02-26T01:32:01;4.63;;;2.40;;
7939;SDS011;4015;48.888;9.226;2023-02-26T01:34:47;8.33;;;3.07;;
7939;SDS011;4015;48.888;9.226;2023-02-26T01:39:56;4.40;;;2.67;;
7939;SDS011;4015;48.888;9.226;2023-02-26T01:42:37;2.73;;;2.40;;
7939;SDS011;4015;48.888;9.226;2023-02-26T01:45:15;5.60;;;2.83;;
7939;SDS011;4015;48.888;9.226;2023-02-26T01:47:47;5.70;;;3.10;;
7939;SDS011;4015;48.888;9.226;2023-02-26T01:50:18;3.33;;;2.43;;
7939;SDS011;4015;48.888;9.226;2023-02-26T01:55:11;6.90;;;2.90;;
7939;SDS011;4015;48.888;9.226;2023-02-26T01:57:38;5.03;;;2.40;;
7939;SDS011;4015;48.888;9.226;2023-02-26T02:00:04;4.03;;;2.77;;
7939;SDS011;4015;48.888;9.226;2023-02-26T02:02:30;2.33;;;2.13;;
7939;SDS011;4015;48.888;9.226;2023-02-26T02:04:56;6.50;;;2.93;;
7939;SDS011;4015;48.888;9.226;2023-02-26T02:07:26;5.10;;;2.10;;
7939;SDS011;4015;48.888;9.226;2023-02-26T02:09:53;3.80;;;2.73;;
7939;SDS011;4015;48.888;9.226;2023-02-26T02:15:16;3.70;;;2.60;;
7939;SDS011;4015;48.888;9.226;2023-02-26T02:23:39;5.37;;;2.80;;
7939;SDS011;4015;48.888;9.226;2023-02-26T02:34:33;4.23;;;2.47;;
7939;SDS011;4015;48.888;9.226;2023-02-26T02:37:05;5.03;;;2.57;;
7939;SDS011;4015;48.888;9.226;2023-02-26T02:39:52;2.93;;;2.33;;
7939;SDS011;4015;48.888;9.226;2023-02-26T02:45:05;4.00;;;2.30;;
7939;SDS011;4015;48.888;9.226;2023-02-26T02:47:35;5.77;;;2.80;;
7939;SDS011;4015;48.888;9.226;2023-02-26T02:50:08;5.00;;;2.27;;
7939;SDS011;4015;48.888;9.226;2023-02-26T02:52:44;5.13;;;2.63;;
7939;SDS011;4015;48.888;9.226;2023-02-26T02:55:32;6.03;;;2.30;;
7939;SDS011;4015;48.888;9.226;2023-02-26T02:58:06;3.30;;;2.40;;
7939;SDS011;4015;48.888;9.226;2023-02-26T03:00:37;2.77;;;2.50;;
7939;SDS011;4015;48.888;9.226;2023-02-26T03:03:24;3.07;;;2.47;;
7939;SDS011;4015;48.888;9.226;2023-02-26T03:05:50;3.03;;;2.40;;
7939;SDS011;4015;48.888;9.226;2023-02-26T03:08:16;2.80;;;2.30;;
7939;SDS011;4015;48.888;9.226;2023-02-26T03:10:45;5.10;;;2.43;;
7939;SDS011;4015;48.888;9.226;2023-02-26T03:13:19;4.67;;;2.60;;
7939;SDS011;4015;48.888;9.226;2023-02-26T03:24:28;4.57;;;2.50;;
7939;SDS011;4015;48.888;9.226;2023-02-26T03:27:02;4.73;;;2.80;;
7939;SDS011;4015;48.888;9.226;2023-02-26T03:29:44;3.13;;;2.20;;
7939;SDS011;4015;48.888;9.226;2023-02-26T03:32:16;6.13;;;2.67;;
7939;SDS011;4015;48.888;9.226;2023-02-26T03:34:49;4.50;;;2.43;;
7939;SDS011;4015;48.888;9.226;2023-02-26T03:37:22;3.93;;;2.97;;
7939;SDS011;4015;48.888;9.226;2023-02-26T03:39:56;3.13;;;2.83;;
7939;SDS011;4015;48.888;9.226;2023-02-26T03:42:27;3.43;;;2.83;;
7939;SDS011;4015;48.888;9.226;2023-02-26T03:44:58;3.17;;;2.50;;
7939;SDS011;4015;48.888;9.226;2023-02-26T03:47:27;6.33;;;2.60;;
7939;SDS011;4015;48.888;9.226;2023-02-26T03:49:58;4.93;;;2.90;;
7939;SDS011;4015;48.888;9.226;2023-02-26T03:52:26;3.43;;;2.37;;
7939;SDS011;4015;48.888;9.226;2023-02-26T03:54:55;4.27;;;2.60;;
7939;SDS011;4015;48.888;9.226;2023-02-26T03:57:24;2.67;;;2.10;;
7939;SDS011;4015;48.888;9.226;2023-02-26T03:59:49;3.00;;;2.50;;
7939;SDS011;4015;48.888;9.226;2023-02-26T04:02:19;3.03;;;2.73;;
7939;SDS011;4015;48.888;9.226;2023-02-26T04:05:02;3.57;;;2.40;;
7939;SDS011;4015;48.888;9.226;2023-02-26T04:07:33;4.37;;;2.47;;
7939;SDS011;4015;48.888;9.226;2023-02-26T04:09:58;4.23;;;2.80;;
7939;SDS011;4015;48.888;9.226;2023-02-26T04:12:24;3.63;;;2.60;;
7939;SDS011;4015;48.888;9.226;2023-02-26T04:14:51;3.10;;;2.70;;
7939;SDS011;4015;48.888;9.226;2023-02-26T04:17:17;7.40;;;2.67;;
7939;SDS011;4015;48.888;9.226;2023-02-26T04:19:43;3.77;;;2.83;;
7939;SDS011;4015;48.888;9.226;2023-02-26T04:22:08;3.73;;;2.87;;
7939;SDS011;4015;48.888;9.226;2023-02-26T04:24:34;6.17;;;2.90;;
7939;SDS011;4015;48.888;9.226;2023-02-26T04:26:59;4.13;;;2.83;;
7939;SDS011;4015;48.888;9.226;2023-02-26T04:29:25;4.80;;;3.13;;
7939;SDS011;4015;48.888;9.226;2023-02-26T04:31:51;3.70;;;2.80;;
7939;SDS011;4015;48.888;9.226;2023-02-26T04:34:16;3.73;;;2.70;;
7939;SDS011;4015;48.888;9.226;2023-02-26T04:36:42;7.23;;;2.83;;
7939;SDS011;4015;48.888;9.226;2023-02-26T04:39:07;5.57;;;2.90;;
7939;SDS011;4015;48.888;9.226;2023-02-26T04:41:34;6.13;;;2.70;;
7939;SDS011;4015;48.888;9.226;2023-02-26T04:44:00;5.10;;;2.53;;
7939;SDS011;4015;48.888;9.226;2023-02-26T04:46:25;4.37;;;2.60;;
7939;SDS011;4015;48.888;9.226;2023-02-26T04:48:50;3.40;;;3.00;;
7939;SDS011;4015;48.888;9.226;2023-02-26T04:51:16;4.63;;;2.90;;
7939;SDS011;4015;48.888;9.226;2023-02-26T04:53:42;4.27;;;2.90;;
7939;SDS011;4015;48.888;9.226;2023-02-26T04:56:07;5.90;;;3.13;;
7939;SDS011;4015;48.888;9.226;2023-02-26T04:58:32;4.07;;;2.80;;
7939;SDS011;4015;48.888;9.226;2023-02-26T05:00:58;4.03;;;2.77;;
7939;SDS011;4015;48.888;9.226;2023-02-26T05:03:23;4.70;;;3.27;;
7939;SDS011;4015;48.888;9.226;2023-02-26T05:05:49;5.47;;;2.80;;
7939;SDS011;4015;48.888;9.226;2023-02-26T05:08:14;4.03;;;2.70;;
7939;SDS011;4015;48.888;9.226;2023-02-26T05:10:39;3.67;;;2.63;;
7939;SDS011;4015;48.888;9.226;2023-02-26T05:13:05;4.70;;;3.37;;
7939;SDS011;4015;48.888;9.226;2023-02-26T05:15:30;9.00;;;3.13;;
7939;SDS011;4015;48.888;9.226;2023-02-26T05:17:56;4.43;;;2.53;;
7939;SDS011;4015;48.888;9.226;2023-02-26T05:20:21;5.13;;;2.90;;
7939;SDS011;4015;48.888;9.226;2023-02-26T05:22:46;3.60;;;3.17;;
7939;SDS011;4015;48.888;9.226;2023-02-26T05:25:12;5.27;;;2.97;;
7939;SDS011;4015;48.888;9.226;2023-02-26T05:27:38;5.93;;;2.70;;
7939;SDS011;4015;48.888;9.226;2023-02-26T05:30:05;4.30;;;2.80;;
7939;SDS011;4015;48.888;9.226;2023-02-26T05:32:31;4.23;;;2.63;;
7939;SDS011;4015;48.888;9.226;2023-02-26T05:34:57;3.20;;;2.83;;
7939;SDS011;4015;48.888;9.226;2023-02-26T05:37:22;4.37;;;2.53;;
7939;SDS011;4015;48.888;9.226;2023-02-26T05:39:47;4.53;;;2.10;;
7939;SDS011;4015;48.888;9.226;2023-02-26T05:42:13;2.73;;;2.27;;
7939;SDS011;4015;48.888;9.226;2023-02-26T05:44:38;3.23;;;2.90;;
7939;SDS011;4015;48.888;9.226;2023-02-26T05:47:04;3.77;;;2.47;;
7939;SDS011;4015;48.888;9.226;2023-02-26T05:49:29;4.77;;;2.70;;
7939;SDS011;4015;48.888;9.226;2023-02-26T05:51:54;7.77;;;3.13;;
7939;SDS011;4015;48.888;9.226;2023-02-26T05:54:20;7.70;;;2.90;;
7939;SDS011;4015;48.888;9.226;2023-02-26T05:56:46;6.33;;;2.80;;
7939;SDS011;4015;48.888;9.226;2023-02-26T05:59:12;3.30;;;3.00;;
7939;SDS011;4015;48.888;9.226;2023-02-26T06:01:37;4.47;;;2.67;;
7939;SDS011;4015;48.888;9.226;2023-02-26T06:04:03;4.70;;;2.53;;
7939;SDS011;4015;48.888;9.226;2023-02-26T06:06:29;4.83;;;2.60;;
7939;SDS011;4015;48.888;9.226;2023-02-26T06:08:55;5.57;;;2.40;;
7939;SDS011;4015;48.888;9.226;2023-02-26T06:11:20;5.87;;;2.87;;
7939;SDS011;4015;48.888;9.226;2023-02-26T06:13:46;5.97;;;3.17;;
7939;SDS011;4015;48.888;9.226;2023-02-26T06:16:11;3.17;;;2.77;;
7939;SDS011;4015;48.888;9.226;2023-02-26T06:18:36;7.73;;;3.17;;
7939;SDS011;4015;48.888;9.226;2023-02-26T06:21:02;6.37;;;2.83;;
7939;SDS011;4015;48.888;9.226;2023-02-26T06:23:27;6.53;;;3.13;;
7939;SDS011;4015;48.888;9.226;2023-02-26T06:25:53;7.00;;;2.97;;
7939;SDS011;4015;48.888;9.226;2023-02-26T06:28:18;4.77;;;3.20;;
7939;SDS011;4015;48.888;9.226;2023-02-26T06:30:44;4.20;;;2.80;;
7939;SDS011;4015;48.888;9.226;2023-02-26T06:33:10;3.83;;;2.73;;
7939;SDS011;4015;48.888;9.226;2023-02-26T06:35:36;4.63;;;2.97;;
7939;SDS011;4015;48.888;9.226;2023-02-26T06:38:01;3.20;;;2.60;;
7939;SDS011;4015;48.888;9.226;2023-02-26T06:40:27;3.70;;;2.93;;
7939;SDS011;4015;48.888;9.226;2023-02-26T06:42:52;3.73;;;3.13;;
7939;SDS011;4015;48.888;9.226;2023-02-26T06:45:18;4.00;;;3.20;;
7939;SDS011;4015;48.888;9.226;2023-02-26T06:47:43;6.70;;;3.20;;
7939;SDS011;4015;48.888;9.226;2023-02-26T06:50:09;5.73;;;3.00;;
7939;SDS011;4015;48.888;9.226;2023-02-26T06:52:35;3.13;;;2.83;;
7939;SDS011;4015;48.888;9.226;2023-02-26T06:55:01;4.07;;;2.87;;
7939;SDS011;4015;48.888;9.226;2023-02-26T06:57:27;3.80;;;2.97;;
7939;SDS011;4015;48.888;9.226;2023-02-26T06:59:52;3.47;;;2.40;;
7939;SDS011;4015;48.888;9.226;2023-02-26T07:02:18;3.80;;;2.77;;
7939;SDS011;4015;48.888;9.226;2023-02-26T07:04:45;3.63;;;2.67;;
7939;SDS011;4015;48.888;9.226;2023-02-26T07:07:10;2.63;;;2.43;;
7939;SDS011;4015;48.888;9.226;2023-02-26T07:09:36;4.53;;;2.50;;
7939;SDS011;4015;48.888;9.226;2023-02-26T07:12:02;5.00;;;3.37;;
7939;SDS011;4015;48.888;9.226;2023-02-26T07:14:27;6.20;;;2.57;;
7939;SDS011;4015;48.888;9.226;2023-02-26T07:16:53;5.73;;;3.10;;
7939;SDS011;4015;48.888;9.226;2023-02-26T07:19:18;4.10;;;2.87;;
7939;SDS011;4015;48.888;9.226;2023-02-26T07:21:43;4.77;;;3.20;;
7939;SDS011;4015;48.888;9.226;2023-02-26T07:24:09;4.87;;;3.17;;
7939;SDS011;4015;48.888;9.226;2023-02-26T07:26:34;5.23;;;3.33;;
7939;SDS011;4015;48.888;9.226;2023-02-26T07:28:59;5.60;;;2.70;;
7939;SDS011;4015;48.888;9.226;2023-02-26T07:31:25;5.90;;;2.90;;
7939;SDS011;4015;48.888;9.226;2023-02-26T07:33:50;3.43;;;2.47;;
7939;SDS011;4015;48.888;9.226;2023-02-26T07:36:15;2.50;;;2.30;;
7939;SDS011;4015;48.888;9.226;2023-02-26T07:38:41;2.93;;;2.57;;
7939;SDS011;4015;48.888;9.226;2023-02-26T07:41:06;2.47;;;2.27;;
7939;SDS011;4015;48.888;9.226;2023-02-26T07:43:31;3.27;;;2.90;;
7939;SDS011;4015;48.888;9.226;2023-02-26T07:45:57;3.67;;;2.50;;
7939;SDS011;4015;48.888;9.226;2023-02-26T07:48:22;3.63;;;2.37;;
7939;SDS011;4015;48.888;9.226;2023-02-26T07:50:50;4.10;;;2.63;;
7939;SDS011;4015;48.888;9.226;2023-02-26T07:53:17;6.43;;;3.17;;
7939;SDS011;4015;48.888;9.226;2023-02-26T07:55:42;4.57;;;3.10;;
7939;SDS011;4015;48.888;9.226;2023-02-26T07:58:07;7.33;;;3.40;;
7939;SDS011;4015;48.888;9.226;2023-02-26T08:00:33;5.47;;;3.00;;
7939;SDS011;4015;48.888;9.226;2023-02-26T08:02:58;8.23;;;3.40;;
7939;SDS011;4015;48.888;9.226;2023-02-26T08:05:23;5.00;;;2.67;;
7939;SDS011;4015;48.888;9.226;2023-02-26T08:07:49;5.90;;;3.00;;
7939;SDS011;4015;48.888;9.226;2023-02-26T08:10:14;10.70;;;5.97;;
7939;SDS011;4015;48.888;9.226;2023-02-26T08:12:39;22.43;;;12.33;;
7939;SDS011;4015;48.888;9.226;2023-02-26T08:15:05;11.07;;;5.63;;
7939;SDS011;4015;48.888;9.226;2023-02-26T08:17:31;3.37;;;2.10;;
7939;SDS011;4015;48.888;9.226;2023-02-26T08:19:56;2.87;;;2.30;;
7939;SDS011;4015;48.888;9.226;2023-02-26T08:22:21;6.40;;;2.63;;
7939;SDS011;4015;48.888;9.226;2023-02-26T08:24:47;4.80;;;2.57;;
7939;SDS011;4015;48.888;9.226;2023-02-26T08:27:13;3.70;;;2.17;;
7939;SDS011;4015;48.888;9.226;2023-02-26T08:29:38;3.37;;;1.90;;
7939;SDS011;4015;48.888;9.226;2023-02-26T08:32:04;4.20;;;2.67;;
7939;SDS011;4015;48.888;9.226;2023-02-26T08:34:29;3.67;;;2.17;;
7939;SDS011;4015;48.888;9.226;2023-02-26T08:36:54;2.33;;;1.70;;
7939;SDS011;4015;48.888;9.226;2023-02-26T08:39:20;3.03;;;2.17;;
7939;SDS011;4015;48.888;9.226;2023-02-26T08:41:45;4.60;;;1.70;;
7939;SDS011;4015;48.888;9.226;2023-02-26T08:44:10;5.00;;;2.13;;
7939;SDS011;4015;48.888;9.226;2023-02-26T08:46:36;4.60;;;2.53;;
7939;SDS011;4015;48.888;9.226;2023-02-26T08:49:01;2.20;;;1.73;;
7939;SDS011;4015;48.888;9.226;2023-02-26T08:51:27;3.53;;;1.90;;
7939;SDS011;4015;48.888;9.226;2023-02-26T08:53:52;3.37;;;2.50;;
7939;SDS011;4015;48.888;9.226;2023-02-26T08:56:18;2.70;;;1.73;;
7939;SDS011;4015;48.888;9.226;2023-02-26T08:58:43;2.23;;;1.70;;
7939;SDS011;4015;48.888;9.226;2023-02-26T09:01:08;4.03;;;1.80;;
7939;SDS011;4015;48.888;9.226;2023-02-26T09:03:34;3.63;;;2.10;;
7939;SDS011;4015;48.888;9.226;2023-02-26T09:05:59;3.70;;;2.00;;
7939;SDS011;4015;48.888;9.226;2023-02-26T09:08:25;4.07;;;2.73;;
7939;SDS011;4015;48.888;9.226;2023-02-26T09:10:50;2.53;;;1.70;;
7939;SDS011;4015;48.888;9.226;2023-02-26T09:13:17;3.00;;;1.70;;
7939;SDS011;4015;48.888;9.226;2023-02-26T09:15:42;3.47;;;1.70;;
7939;SDS011;4015;48.888;9.226;2023-02-26T09:18:08;6.50;;;3.87;;
7939;SDS011;4015;48.888;9.226;2023-02-26T09:20:39;7.47;;;4.77;;
7939;SDS011;4015;48.888;9.226;2023-02-26T09:23:05;2.63;;;2.27;;
7939;SDS011;4015;48.888;9.226;2023-02-26T09:25:31;3.73;;;2.00;;
7939;SDS011;4015;48.888;9.226;2023-02-26T09:27:56;3.77;;;2.00;;
7939;SDS011;4015;48.888;9.226;2023-02-26T09:30:21;2.17;;;1.97;;
7939;SDS011;4015;48.888;9.226;2023-02-26T09:32:47;4.73;;;1.80;;
7939;SDS011;4015;48.888;9.226;2023-02-26T09:35:12;4.23;;;2.60;;
7939;SDS011;4015;48.888;9.226;2023-02-26T09:37:38;4.33;;;2.30;;
7939;SDS011;4015;48.888;9.226;2023-02-26T09:40:04;3.13;;;2.20;;
7939;SDS011;4015;48.888;9.226;2023-02-26T09:42:40;4.40;;;2.27;;
7939;SDS011;4015;48.888;9.226;2023-02-26T09:45:41;5.23;;;2.93;;
7939;SDS011;4015;48.888;9.226;2023-02-26T09:48:07;3.13;;;1.63;;
7939;SDS011;4015;48.888;9.226;2023-02-26T09:50:43;4.83;;;2.47;;
7939;SDS011;4015;48.888;9.226;2023-02-26T09:53:25;8.90;;;6.77;;
7939;SDS011;4015;48.888;9.226;2023-02-26T09:55:57;3.43;;;2.60;;
7939;SDS011;4015;48.888;9.226;2023-02-26T09:58:35;3.17;;;2.00;;
7939;SDS011;4015;48.888;9.226;2023-02-26T10:06:22;4.07;;;2.10;;
7939;SDS011;4015;48.888;9.226;2023-02-26T10:11:30;2.37;;;1.50;;
7939;SDS011;4015;48.888;9.226;2023-02-26T10:14:16;2.80;;;2.43;;
7939;SDS011;4015;48.888;9.226;2023-02-26T10:16:49;2.80;;;1.97;;
7939;SDS011;4015;48.888;9.226;2023-02-26T10:19:19;2.00;;;1.90;;
7939;SDS011;4015;48.888;9.226;2023-02-26T10:21:51;2.87;;;1.63;;
7939;SDS011;4015;48.888;9.226;2023-02-26T10:24:23;2.67;;;1.67;;
7939;SDS011;4015;48.888;9.226;2023-02-26T10:26:55;2.27;;;1.83;;
7939;SDS011;4015;48.888;9.226;2023-02-26T10:29:35;1.73;;;1.53;;
7939;SDS011;4015;48.888;9.226;2023-02-26T10:32:14;3.03;;;1.60;;
7939;SDS011;4015;48.888;9.226;2023-02-26T10:34:51;3.00;;;1.60;;
7939;SDS011;4015;48.888;9.226;2023-02-26T10:37:31;2.13;;;1.57;;
7939;SDS011;4015;48.888;9.226;2023-02-26T10:42:38;2.23;;;1.93;;
7939;SDS011;4015;48.888;9.226;2023-02-26T10:48:20;6.27;;;1.70;;
7939;SDS011;4015;48.888;9.226;2023-02-26T10:51:00;4.20;;;1.50;;
7939;SDS011;4015;48.888;9.226;2023-02-26T10:53:36;2.00;;;1.50;;
7939;SDS011;4015;48.888;9.226;2023-02-26T10:56:22;1.97;;;1.60;;
7939;SDS011;4015;48.888;9.226;2023-02-26T10:58:51;1.83;;;1.67;;
7939;SDS011;4015;48.888;9.226;2023-02-26T11:01:20;1.50;;;1.40;;
7939;SDS011;4015;48.888;9.226;2023-02-26T11:03:50;1.50;;;1.40;;
7939;SDS011;4015;48.888;9.226;2023-02-26T11:06:26;2.03;;;1.67;;
7939;SDS011;4015;48.888;9.226;2023-02-26T11:08:55;1.77;;;1.50;;
7939;SDS011;4015;48.888;9.226;2023-02-26T11:11:36;1.90;;;1.50;;
7939;SDS011;4015;48.888;9.226;2023-02-26T11:14:14;2.20;;;1.80;;
7939;SDS011;4015;48.888;9.226;2023-02-26T11:16:42;3.87;;;2.47;;
7939;SDS011;4015;48.888;9.226;2023-02-26T11:19:14;4.00;;;2.57;;
7939;SDS011;4015;48.888;9.226;2023-02-26T11:21:42;1.30;;;1.20;;
7939;SDS011;4015;48.888;9.226;2023-02-26T11:24:12;1.20;;;1.10;;
7939;SDS011;4015;48.888;9.226;2023-02-26T11:26:42;1.17;;;1.07;;
7939;SDS011;4015;48.888;9.226;2023-02-26T11:29:13;1.07;;;0.87;;
7939;SDS011;4015;48.888;9.226;2023-02-26T11:31:40;1.80;;;1.00;;
7939;SDS011;4015;48.888;9.226;2023-02-26T11:34:07;1.40;;;1.00;;
7939;SDS011;4015;48.888;9.226;2023-02-26T11:36:36;1.03;;;0.87;;
7939;SDS011;4015;48.888;9.226;2023-02-26T11:39:25;1.07;;;0.80;;
7939;SDS011;4015;48.888;9.226;2023-02-26T11:41:54;1.13;;;1.03;;
7939;SDS011;4015;48.888;9.226;2023-02-26T11:44:30;2.23;;;1.00;;
7939;SDS011;4015;48.888;9.226;2023-02-26T11:47:00;1.40;;;1.10;;
7939;SDS011;4015;48.888;9.226;2023-02-26T11:49:29;2.10;;;1.00;;
7939;SDS011;4015;48.888;9.226;2023-02-26T11:52:03;1.20;;;1.10;;
7939;SDS011;4015;48.888;9.226;2023-02-26T11:54:39;1.50;;;1.17;;
7939;SDS011;4015;48.888;9.226;2023-02-26T11:57:11;1.00;;;0.90;;
7939;SDS011;4015;48.888;9.226;2023-02-26T11:59:48;1.47;;;1.07;;
7939;SDS011;4015;48.888;9.226;2023-02-26T12:02:17;2.10;;;1.20;;
7939;SDS011;4015;48.888;9.226;2023-02-26T12:04:47;1.00;;;1.00;;
7939;SDS011;4015;48.888;9.226;2023-02-26T12:07:15;2.30;;;1.20;;
7939;SDS011;4015;48.888;9.226;2023-02-26T12:09:41;3.73;;;1.40;;
7939;SDS011;4015;48.888;9.226;2023-02-26T12:17:57;2.20;;;1.53;;
7939;SDS011;4015;48.888;9.226;2023-02-26T12:26:17;2.13;;;1.60;;
7939;SDS011;4015;48.888;9.226;2023-02-26T12:29:10;1.50;;;1.40;;
7939;SDS011;4015;48.888;9.226;2023-02-26T12:31:45;1.43;;;1.20;;
7939;SDS011;4015;48.888;9.226;2023-02-26T12:37:03;1.53;;;1.43;;
7939;SDS011;4015;48.888;9.226;2023-02-26T12:45:29;1.37;;;1.27;;
7939;SDS011;4015;48.888;9.226;2023-02-26T12:48:44;1.50;;;1.33;;
7939;SDS011;4015;48.888;9.226;2023-02-26T12:59:51;1.63;;;1.30;;
7939;SDS011;4015;48.888;9.226;2023-02-26T13:02:35;2.03;;;1.47;;
7939;SDS011;4015;48.888;9.226;2023-02-26T13:08:10;2.20;;;1.30;;
7939;SDS011;4015;48.888;9.226;2023-02-26T13:10:50;1.20;;;1.10;;
7939;SDS011;4015;48.888;9.226;2023-02-26T13:16:28;2.47;;;1.10;;
7939;SDS011;4015;48.888;9.226;2023-02-26T13:19:04;1.50;;;1.40;;
7939;SDS011;4015;48.888;9.226;2023-02-26T13:21:41;1.47;;;1.27;;
7939;SDS011;4015;48.888;9.226;2023-02-26T13:24:13;1.57;;;1.20;;
7939;SDS011;4015;48.888;9.226;2023-02-26T13:26:43;2.67;;;1.30;;
7939;SDS011;4015;48.888;9.226;2023-02-26T13:29:17;1.43;;;1.33;;
7939;SDS011;4015;48.888;9.226;2023-02-26T13:31:56;1.57;;;1.40;;
7939;SDS011;4015;48.888;9.226;2023-02-26T13:34:40;1.23;;;1.10;;
7939;SDS011;4015;48.888;9.226;2023-02-26T13:37:20;1.03;;;0.93;;
7939;SDS011;4015;48.888;9.226;2023-02-26T13:40:00;1.40;;;1.30;;
7939;SDS011;4015;48.888;9.226;2023-02-26T13:54:00;1.33;;;1.20;;
7939;SDS011;4015;48.888;9.226;2023-02-26T14:06:42;1.40;;;1.23;;
7939;SDS011;4015;48.888;9.226;2023-02-26T14:14:43;1.00;;;0.90;;
7939;SDS011;4015;48.888;9.226;2023-02-26T14:17:47;1.00;;;0.93;;
7939;SDS011;4015;48.888;9.226;2023-02-26T14:20:24;0.83;;;0.80;;
7939;SDS011;4015;48.888;9.226;2023-02-26T14:22:57;1.00;;;0.90;;
7939;SDS011;4015;48.888;9.226;2023-02-26T14:25:39;1.00;;;0.90;;
7939;SDS011;4015;48.888;9.226;2023-02-26T14:30:46;1.17;;;1.07;;
7939;SDS011;4015;48.888;9.226;2023-02-26T14:33:16;1.73;;;1.10;;
7939;SDS011;4015;48.888;9.226;2023-02-26T14:35:44;2.30;;;1.20;;
7939;SDS011;4015;48.888;9.226;2023-02-26T14:38:26;2.80;;;1.40;;
7939;SDS011;4015;48.888;9.226;2023-02-26T14:40:56;2.70;;;1.80;;
7939;SDS011;4015;48.888;9.226;2023-02-26T14:43:45;1.20;;;1.10;;
7939;SDS011;4015;48.888;9.226;2023-02-26T14:46:17;2.60;;;1.30;;
7939;SDS011;4015;48.888;9.226;2023-02-26T14:48:43;1.07;;;0.97;;
7939;SDS011;4015;48.888;9.226;2023-02-26T15:17:51;1.30;;;1.20;;
7939;SDS011;4015;48.888;9.226;2023-02-26T15:23:13;1.60;;;1.10;;
7939;SDS011;4015;48.888;9.226;2023-02-26T15:25:45;2.20;;;1.40;;
7939;SDS011;4015;48.888;9.226;2023-02-26T15:28:20;1.30;;;1.17;;
7939;SDS011;4015;48.888;9.226;2023-02-26T15:30:51;2.40;;;1.20;;
7939;SDS011;4015;48.888;9.226;2023-02-26T15:33:17;1.30;;;1.20;;
7939;SDS011;4015;48.888;9.226;2023-02-26T15:35:44;1.37;;;1.27;;
7939;SDS011;4015;48.888;9.226;2023-02-26T15:38:12;1.43;;;1.33;;
7939;SDS011;4015;48.888;9.226;2023-02-26T15:40:37;1.10;;;1.00;;
7939;SDS011;4015;48.888;9.226;2023-02-26T15:43:04;1.97;;;1.30;;
7939;SDS011;4015;48.888;9.226;2023-02-26T15:45:42;1.43;;;1.20;;
7939;SDS011;4015;48.888;9.226;2023-02-26T15:48:11;1.70;;;1.10;;
7939;SDS011;4015;48.888;9.226;2023-02-26T15:50:44;2.37;;;1.27;;
7939;SDS011;4015;48.888;9.226;2023-02-26T15:53:12;1.73;;;1.30;;
7939;SDS011;4015;48.888;9.226;2023-02-26T15:55:52;1.13;;;1.03;;
7939;SDS011;4015;48.888;9.226;2023-02-26T15:58:22;1.40;;;1.30;;
7939;SDS011;4015;48.888;9.226;2023-02-26T16:00:59;1.57;;;1.47;;
7939;SDS011;4015;48.888;9.226;2023-02-26T16:03:30;1.30;;;1.20;;
7939;SDS011;4015;48.888;9.226;2023-02-26T16:05:58;1.00;;;0.90;;
7939;SDS011;4015;48.888;9.226;2023-02-26T16:08:23;2.43;;;1.27;;
7939;SDS011;4015;48.888;9.226;2023-02-26T16:10:49;1.70;;;1.30;;
7939;SDS011;4015;48.888;9.226;2023-02-26T16:13:21;1.30;;;1.20;;
7939;SDS011;4015;48.888;9.226;2023-02-26T16:16:02;1.10;;;1.00;;
7939;SDS011;4015;48.888;9.226;2023-02-26T16:18:32;1.67;;;1.10;;
7939;SDS011;4015;48.888;9.226;2023-02-26T16:20:59;1.40;;;1.30;;
7939;SDS011;4015;48.888;9.226;2023-02-26T16:23:37;1.53;;;1.30;;
7939;SDS011;4015;48.888;9.226;2023-02-26T16:26:08;1.17;;;1.07;;
7939;SDS011;4015;48.888;9.226;2023-02-26T16:28:40;1.00;;;1.00;;
7939;SDS011;4015;48.888;9.226;2023-02-26T16:31:22;1.63;;;1.47;;
7939;SDS011;4015;48.888;9.226;2023-02-26T16:34:19;1.87;;;1.40;;
7939;SDS011;4015;48.888;9.226;2023-02-26T16:36:48;1.97;;;1.07;;
7939;SDS011;4015;48.888;9.226;2023-02-26T16:39:23;2.50;;;1.30;;
7939;SDS011;4015;48.888;9.226;2023-02-26T16:42:14;1.83;;;1.33;;
7939;SDS011;4015;48.888;9.226;2023-02-26T16:44:48;1.23;;;1.13;;
7939;SDS011;4015;48.888;9.226;2023-02-26T16:47:15;1.70;;;1.10;;
7939;SDS011;4015;48.888;9.226;2023-02-26T16:49:42;1.63;;;1.50;;
7939;SDS011;4015;48.888;9.226;2023-02-26T16:52:11;1.60;;;1.50;;
7939;SDS011;4015;48.888;9.226;2023-02-26T16:54:41;1.47;;;1.37;;
7939;SDS011;4015;48.888;9.226;2023-02-26T16:57:19;1.60;;;1.20;;
7939;SDS011;4015;48.888;9.226;2023-02-26T16:59:51;3.30;;;1.10;;
7939;SDS011;4015;48.888;9.226;2023-02-26T17:02:28;1.20;;;1.10;;
7939;SDS011;4015;48.888;9.226;2023-02-26T17:04:58;2.83;;;1.30;;
7939;SDS011;4015;48.888;9.226;2023-02-26T17:07:34;1.40;;;1.30;;
7939;SDS011;4015;48.888;9.226;2023-02-26T17:10:18;2.23;;;1.47;;
7939;SDS011;4015;48.888;9.226;2023-02-26T17:12:48;1.70;;;1.60;;
7939;SDS011;4015;48.888;9.226;2023-02-26T17:15:18;1.53;;;1.43;;
7939;SDS011;4015;48.888;9.226;2023-02-26T17:18:00;1.47;;;1.37;;
7939;SDS011;4015;48.888;9.226;2023-02-26T17:20:26;2.67;;;1.40;;
7939;SDS011;4015;48.888;9.226;2023-02-26T17:22:53;1.53;;;1.40;;
7939;SDS011;4015;48.888;9.226;2023-02-26T17:25:20;1.77;;;1.50;;
7939;SDS011;4015;48.888;9.226;2023-02-26T17:27:47;1.80;;;1.40;;
7939;SDS011;4015;48.888;9.226;2023-02-26T17:30:14;1.40;;;1.30;;
7939;SDS011;4015;48.888;9.226;2023-02-26T17:32:41;1.80;;;1.40;;
7939;SDS011;4015;48.888;9.226;2023-02-26T17:35:07;2.63;;;1.67;;
7939;SDS011;4015;48.888;9.226;2023-02-26T17:37:35;5.83;;;4.40;;
7939;SDS011;4015;48.888;9.226;2023-02-26T17:40:02;2.23;;;1.67;;
7939;SDS011;4015;48.888;9.226;2023-02-26T17:42:28;1.67;;;1.57;;
7939;SDS011;4015;48.888;9.226;2023-02-26T17:44:53;1.93;;;1.40;;
7939;SDS011;4015;48.888;9.226;2023-02-26T17:47:24;1.40;;;1.30;;
7939;SDS011;4015;48.888;9.226;2023-02-26T17:49:50;2.50;;;1.50;;
7939;SDS011;4015;48.888;9.226;2023-02-26T17:52:16;1.57;;;1.20;;
7939;SDS011;4015;48.888;9.226;2023-02-26T17:54:42;1.40;;;1.30;;
7939;SDS011;4015;48.888;9.226;2023-02-26T17:57:14;1.47;;;1.37;;
7939;SDS011;4015;48.888;9.226;2023-02-26T17:59:41;2.27;;;1.70;;
7939;SDS011;4015;48.888;9.226;2023-02-26T18:02:17;1.40;;;1.30;;
7939;SDS011;4015;48.888;9.226;2023-02-26T18:04:46;1.60;;;1.50;;